sensor_id;sensor_type;location;lat;lon;timestamp;temperature;humidity
25582;DHT22;13462;50.764;4.332;2024-01-15T00:01:45;1.80;99.90
25582;DHT22;13462;50.764;4.332;2024-01-15T00:04:10;1.90;99.90
25582;DHT22;13462;50.764;4.332;2024-01-15T00:06:36;1.90;99.90
25582;DHT22;13462;50.764;4.332;2024-01-15T00:09:02;1.90;99.90
25582;DHT22;13462;50.764;4.332;2024-01-15T00:11:28;1.80;99.90
25582;DHT22;13462;50.764;4.332;2024-01-15T00:13:53;1.90;99.90
25582;DHT22;13462;50.764;4.332;2024-01-15T00:16:19;1.90;99.90
25582;DHT22;13462;50.764;4.332;2024-01-15T00:18:44;1.90;99.90
25582;DHT22;13462;50.764;4.332;2024-01-15T00:21:10;2.00;99.90
25582;DHT22;13462;50.764;4.332;2024-01-15T00:23:36;2.10;99.90
25582;DHT22;13462;50.764;4.332;2024-01-15T00:26:01;2.10;99.90
25582;DHT22;13462;50.764;4.332;2024-01-15T00:28:27;2.10;99.90
25582;DHT22;13462;50.764;4.332;2024-01-15T00:30:53;2.10;99.90
25582;DHT22;13462;50.764;4.332;2024-01-15T00:33:18;2.10;99.90
25582;DHT22;13462;50.764;4.332;2024-01-15T00:35:44;2.10;99.90
25582;DHT22;13462;50.764;4.332;2024-01-15T00:38:10;2.10;99.90
25582;DHT22;13462;50.764;4.332;2024-01-15T00:40:44;2.10;99.90
25582;DHT22;13462;50.764;4.332;2024-01-15T00:45:49;2.10;99.90
25582;DHT22;13462;50.764;4.332;2024-01-15T00:48:17;2.00;99.90
25582;DHT22;13462;50.764;4.332;2024-01-15T00:50:43;2.10;99.90
25582;DHT22;13462;50.764;4.332;2024-01-15T00:53:11;2.10;99.90
25582;DHT22;13462;50.764;4.332;2024-01-15T00:55:52;2.00;99.90
25582;DHT22;13462;50.764;4.332;2024-01-15T00:58:18;2.00;99.90
25582;DHT22;13462;50.764;4.332;2024-01-15T01:00:44;2.00;99.90
25582;DHT22;13462;50.764;4.332;2024-01-15T01:03:09;2.00;99.90
25582;DHT22;13462;50.764;4.332;2024-01-15T01:05:35;2.00;99.90
25582;DHT22;13462;50.764;4.332;2024-01-15T01:08:00;2.00;99.90
25582;DHT22;13462;50.764;4.332;2024-01-15T01:10:27;2.10;99.90
25582;DHT22;13462;50.764;4.332;2024-01-15T01:12:53;2.10;99.90
25582;DHT22;13462;50.764;4.332;2024-01-15T01:15:19;2.10;99.90
25582;DHT22;13462;50.764;4.332;2024-01-15T01:17:45;2.00;99.90
25582;DHT22;13462;50.764;4.332;2024-01-15T01:20:11;2.00;99.90
25582;DHT22;13462;50.764;4.332;2024-01-15T01:22:40;2.10;99.90
25582;DHT22;13462;50.764;4.332;2024-01-15T01:25:08;2.10;99.90
25582;DHT22;13462;50.764;4.332;2024-01-15T01:27:35;2.20;99.90
25582;DHT22;13462;50.764;4.332;2024-01-15T01:30:04;2.30;99.90
25582;DHT22;13462;50.764;4.332;2024-01-15T01:32:31;2.30;99.90
25582;DHT22;13462;50.764;4.332;2024-01-15T01:34:56;2.40;99.90
25582;DHT22;13462;50.764;4.332;2024-01-15T01:37:22;2.20;99.90
25582;DHT22;13462;50.764;4.332;2024-01-15T01:39:50;2.30;99.90
25582;DHT22;13462;50.764;4.332;2024-01-15T01:42:16;2.30;99.90
25582;DHT22;13462;50.764;4.332;2024-01-15T01:44:42;2.30;99.90
25582;DHT22;13462;50.764;4.332;2024-01-15T01:47:08;2.30;99.90
25582;DHT22;13462;50.764;4.332;2024-01-15T01:49:34;2.40;99.90
25582;DHT22;13462;50.764;4.332;2024-01-15T01:52:02;2.60;99.90
25582;DHT22;13462;50.764;4.332;2024-01-15T01:54:31;2.60;99.90
25582;DHT22;13462;50.764;4.332;2024-01-15T01:56:58;2.60;99.90
25582;DHT22;13462;50.764;4.332;2024-01-15T01:59:26;2.50;99.90
25582;DHT22;13462;50.764;4.332;2024-01-15T02:01:54;2.50;99.90
25582;DHT22;13462;50.764;4.332;2024-01-15T02:04:23;2.50;99.90
25582;DHT22;13462;50.764;4.332;2024-01-15T02:06:50;2.60;99.90
25582;DHT22;13462;50.764;4.332;2024-01-15T02:09:17;2.40;99.90
25582;DHT22;13462;50.764;4.332;2024-01-15T02:11:43;2.40;99.90
25582;DHT22;13462;50.764;4.332;2024-01-15T02:14:09;2.40;99.90
25582;DHT22;13462;50.764;4.332;2024-01-15T02:16:35;2.30;99.90
25582;DHT22;13462;50.764;4.332;2024-01-15T02:19:01;2.20;99.90
25582;DHT22;13462;50.764;4.332;2024-01-15T02:21:26;2.30;99.90
25582;DHT22;13462;50.764;4.332;2024-01-15T02:23:54;2.30;99.90
25582;DHT22;13462;50.764;4.332;2024-01-15T02:26:21;2.30;99.90
25582;DHT22;13462;50.764;4.332;2024-01-15T02:28:47;2.30;99.90
25582;DHT22;13462;50.764;4.332;2024-01-15T02:31:13;2.30;99.90
25582;DHT22;13462;50.764;4.332;2024-01-15T02:33:39;2.20;99.90
25582;DHT22;13462;50.764;4.332;2024-01-15T02:36:05;2.10;99.90
25582;DHT22;13462;50.764;4.332;2024-01-15T02:38:31;2.10;99.90
25582;DHT22;13462;50.764;4.332;2024-01-15T02:40:57;2.10;99.90
25582;DHT22;13462;50.764;4.332;2024-01-15T02:43:23;2.10;99.90
25582;DHT22;13462;50.764;4.332;2024-01-15T02:45:48;2.10;99.90
25582;DHT22;13462;50.764;4.332;2024-01-15T02:48:14;2.10;99.90
25582;DHT22;13462;50.764;4.332;2024-01-15T02:50:40;2.00;99.90
25582;DHT22;13462;50.764;4.332;2024-01-15T02:53:05;2.00;99.90
25582;DHT22;13462;50.764;4.332;2024-01-15T02:55:32;2.00;99.90
25582;DHT22;13462;50.764;4.332;2024-01-15T02:57:58;2.00;99.90
25582;DHT22;13462;50.764;4.332;2024-01-15T03:00:23;2.00;99.90
25582;DHT22;13462;50.764;4.332;2024-01-15T03:02:50;2.00;99.90
25582;DHT22;13462;50.764;4.332;2024-01-15T03:05:16;2.00;99.90
25582;DHT22;13462;50.764;4.332;2024-01-15T03:07:42;2.00;99.90
25582;DHT22;13462;50.764;4.332;2024-01-15T03:10:08;2.00;99.90
25582;DHT22;13462;50.764;4.332;2024-01-15T03:12:34;2.00;99.90
25582;DHT22;13462;50.764;4.332;2024-01-15T03:15:00;2.00;99.90
25582;DHT22;13462;50.764;4.332;2024-01-15T03:17:26;2.00;99.90
25582;DHT22;13462;50.764;4.332;2024-01-15T03:19:51;2.00;99.90
25582;DHT22;13462;50.764;4.332;2024-01-15T03:22:17;1.90;99.90
25582;DHT22;13462;50.764;4.332;2024-01-15T03:24:43;2.00;99.90
25582;DHT22;13462;50.764;4.332;2024-01-15T03:27:09;2.00;99.90
25582;DHT22;13462;50.764;4.332;2024-01-15T03:29:35;2.10;99.90
25582;DHT22;13462;50.764;4.332;2024-01-15T03:32:00;2.00;99.90
25582;DHT22;13462;50.764;4.332;2024-01-15T03:34:26;2.00;99.90
25582;DHT22;13462;50.764;4.332;2024-01-15T03:36:52;2.00;99.90
25582;DHT22;13462;50.764;4.332;2024-01-15T03:39:18;2.00;99.90
25582;DHT22;13462;50.764;4.332;2024-01-15T03:41:44;2.00;99.90
25582;DHT22;13462;50.764;4.332;2024-01-15T03:44:09;2.00;99.90
25582;DHT22;13462;50.764;4.332;2024-01-15T03:46:35;2.10;99.90
25582;DHT22;13462;50.764;4.332;2024-01-15T03:49:00;1.90;99.90
25582;DHT22;13462;50.764;4.332;2024-01-15T03:51:28;1.90;99.90
25582;DHT22;13462;50.764;4.332;2024-01-15T03:53:54;2.00;99.90
25582;DHT22;13462;50.764;4.332;2024-01-15T03:56:20;1.90;99.90
25582;DHT22;13462;50.764;4.332;2024-01-15T03:58:45;1.90;99.90
25582;DHT22;13462;50.764;4.332;2024-01-15T04:01:11;1.90;99.90
25582;DHT22;13462;50.764;4.332;2024-01-15T04:03:37;1.80;99.90
25582;DHT22;13462;50.764;4.332;2024-01-15T04:06:04;1.90;99.90
25582;DHT22;13462;50.764;4.332;2024-01-15T04:08:30;1.90;99.90
25582;DHT22;13462;50.764;4.332;2024-01-15T04:10:58;2.00;99.90
25582;DHT22;13462;50.764;4.332;2024-01-15T04:13:24;2.00;99.90
25582;DHT22;13462;50.764;4.332;2024-01-15T04:15:50;2.00;99.90
25582;DHT22;13462;50.764;4.332;2024-01-15T04:18:16;2.00;99.90
25582;DHT22;13462;50.764;4.332;2024-01-15T04:20:42;1.90;99.90
25582;DHT22;13462;50.764;4.332;2024-01-15T04:23:07;2.00;99.90
25582;DHT22;13462;50.764;4.332;2024-01-15T04:25:33;2.00;99.90
25582;DHT22;13462;50.764;4.332;2024-01-15T04:27:59;1.90;99.90
25582;DHT22;13462;50.764;4.332;2024-01-15T04:30:27;1.80;99.90
25582;DHT22;13462;50.764;4.332;2024-01-15T04:32:55;1.80;99.90
25582;DHT22;13462;50.764;4.332;2024-01-15T04:35:21;2.00;99.90
25582;DHT22;13462;50.764;4.332;2024-01-15T04:37:46;1.90;99.90
25582;DHT22;13462;50.764;4.332;2024-01-15T04:40:12;2.00;99.90
25582;DHT22;13462;50.764;4.332;2024-01-15T04:42:38;2.00;99.90
25582;DHT22;13462;50.764;4.332;2024-01-15T04:45:14;2.00;99.90
25582;DHT22;13462;50.764;4.332;2024-01-15T04:47:40;2.10;99.90
25582;DHT22;13462;50.764;4.332;2024-01-15T04:50:09;2.10;99.90
25582;DHT22;13462;50.764;4.332;2024-01-15T04:52:35;2.00;99.90
25582;DHT22;13462;50.764;4.332;2024-01-15T04:55:25;2.10;99.90
25582;DHT22;13462;50.764;4.332;2024-01-15T04:57:51;2.00;99.90
25582;DHT22;13462;50.764;4.332;2024-01-15T05:00:16;2.00;99.90
25582;DHT22;13462;50.764;4.332;2024-01-15T05:02:42;1.90;99.90
25582;DHT22;13462;50.764;4.332;2024-01-15T05:05:08;2.00;99.90
25582;DHT22;13462;50.764;4.332;2024-01-15T05:07:33;2.00;99.90
25582;DHT22;13462;50.764;4.332;2024-01-15T05:09:59;2.00;99.90
25582;DHT22;13462;50.764;4.332;2024-01-15T05:12:25;2.00;99.90
25582;DHT22;13462;50.764;4.332;2024-01-15T05:14:50;2.00;99.90
25582;DHT22;13462;50.764;4.332;2024-01-15T05:17:16;2.00;99.90
25582;DHT22;13462;50.764;4.332;2024-01-15T05:19:41;2.00;99.90
25582;DHT22;13462;50.764;4.332;2024-01-15T05:22:07;1.90;99.90
25582;DHT22;13462;50.764;4.332;2024-01-15T05:24:33;1.90;99.90
25582;DHT22;13462;50.764;4.332;2024-01-15T05:26:58;1.90;99.90
25582;DHT22;13462;50.764;4.332;2024-01-15T05:29:24;2.00;99.90
25582;DHT22;13462;50.764;4.332;2024-01-15T05:31:49;1.90;99.90
25582;DHT22;13462;50.764;4.332;2024-01-15T05:34:15;2.00;99.90
25582;DHT22;13462;50.764;4.332;2024-01-15T05:36:40;1.90;99.90
25582;DHT22;13462;50.764;4.332;2024-01-15T05:39:06;2.00;99.90
25582;DHT22;13462;50.764;4.332;2024-01-15T05:41:31;2.10;99.90
25582;DHT22;13462;50.764;4.332;2024-01-15T05:43:57;2.10;99.90
25582;DHT22;13462;50.764;4.332;2024-01-15T05:46:23;2.20;99.90
25582;DHT22;13462;50.764;4.332;2024-01-15T05:48:48;2.20;99.90
25582;DHT22;13462;50.764;4.332;2024-01-15T05:51:14;2.20;99.90
25582;DHT22;13462;50.764;4.332;2024-01-15T05:53:40;2.10;99.90
25582;DHT22;13462;50.764;4.332;2024-01-15T05:56:08;2.10;99.90
25582;DHT22;13462;50.764;4.332;2024-01-15T05:58:33;2.10;99.90
25582;DHT22;13462;50.764;4.332;2024-01-15T06:00:59;2.10;99.90
25582;DHT22;13462;50.764;4.332;2024-01-15T06:03:25;2.10;99.90
25582;DHT22;13462;50.764;4.332;2024-01-15T06:05:50;2.20;99.90
25582;DHT22;13462;50.764;4.332;2024-01-15T06:08:16;2.20;99.90
25582;DHT22;13462;50.764;4.332;2024-01-15T06:10:41;2.10;99.90
25582;DHT22;13462;50.764;4.332;2024-01-15T06:13:07;2.00;99.90
25582;DHT22;13462;50.764;4.332;2024-01-15T06:15:32;2.10;99.90
25582;DHT22;13462;50.764;4.332;2024-01-15T06:17:58;1.90;99.90
25582;DHT22;13462;50.764;4.332;2024-01-15T06:20:23;1.90;99.90
25582;DHT22;13462;50.764;4.332;2024-01-15T06:22:49;1.80;99.90
25582;DHT22;13462;50.764;4.332;2024-01-15T06:25:15;1.90;99.90
25582;DHT22;13462;50.764;4.332;2024-01-15T06:27:40;1.90;99.90
25582;DHT22;13462;50.764;4.332;2024-01-15T06:30:06;1.90;99.90
25582;DHT22;13462;50.764;4.332;2024-01-15T06:32:32;1.90;99.90
25582;DHT22;13462;50.764;4.332;2024-01-15T06:34:57;1.90;99.90
25582;DHT22;13462;50.764;4.332;2024-01-15T06:37:23;1.90;99.90
25582;DHT22;13462;50.764;4.332;2024-01-15T06:39:49;1.90;99.90
25582;DHT22;13462;50.764;4.332;2024-01-15T06:42:15;1.80;99.90
25582;DHT22;13462;50.764;4.332;2024-01-15T06:44:41;1.80;99.90
25582;DHT22;13462;50.764;4.332;2024-01-15T06:47:06;1.70;99.90
25582;DHT22;13462;50.764;4.332;2024-01-15T06:49:32;1.70;99.90
25582;DHT22;13462;50.764;4.332;2024-01-15T06:51:57;1.70;99.90
25582;DHT22;13462;50.764;4.332;2024-01-15T06:54:23;1.70;99.90
25582;DHT22;13462;50.764;4.332;2024-01-15T06:56:49;1.60;99.90
25582;DHT22;13462;50.764;4.332;2024-01-15T06:59:16;1.60;99.90
25582;DHT22;13462;50.764;4.332;2024-01-15T07:01:42;1.50;99.90
25582;DHT22;13462;50.764;4.332;2024-01-15T07:04:08;1.50;99.90
25582;DHT22;13462;50.764;4.332;2024-01-15T07:06:34;1.40;99.90
25582;DHT22;13462;50.764;4.332;2024-01-15T07:08:59;1.40;99.90
25582;DHT22;13462;50.764;4.332;2024-01-15T07:11:25;1.30;99.90
25582;DHT22;13462;50.764;4.332;2024-01-15T07:13:51;1.20;99.90
25582;DHT22;13462;50.764;4.332;2024-01-15T07:16:20;1.20;99.90
25582;DHT22;13462;50.764;4.332;2024-01-15T07:18:55;1.20;99.90
25582;DHT22;13462;50.764;4.332;2024-01-15T07:21:21;1.10;99.90
25582;DHT22;13462;50.764;4.332;2024-01-15T07:23:47;1.20;99.90
25582;DHT22;13462;50.764;4.332;2024-01-15T07:26:13;1.20;99.90
25582;DHT22;13462;50.764;4.332;2024-01-15T07:28:38;1.20;99.90
25582;DHT22;13462;50.764;4.332;2024-01-15T07:31:04;1.20;99.90
25582;DHT22;13462;50.764;4.332;2024-01-15T07:33:31;1.10;99.90
25582;DHT22;13462;50.764;4.332;2024-01-15T07:35:57;1.10;99.90
25582;DHT22;13462;50.764;4.332;2024-01-15T07:38:23;1.00;99.90
25582;DHT22;13462;50.764;4.332;2024-01-15T07:40:49;1.00;99.90
25582;DHT22;13462;50.764;4.332;2024-01-15T07:43:15;0.90;99.90
25582;DHT22;13462;50.764;4.332;2024-01-15T07:45:40;0.90;99.90
25582;DHT22;13462;50.764;4.332;2024-01-15T07:48:06;0.80;99.90
25582;DHT22;13462;50.764;4.332;2024-01-15T07:50:32;0.90;99.90
25582;DHT22;13462;50.764;4.332;2024-01-15T07:52:57;0.90;99.90
25582;DHT22;13462;50.764;4.332;2024-01-15T07:55:23;1.00;99.90
25582;DHT22;13462;50.764;4.332;2024-01-15T07:57:48;1.10;99.90
25582;DHT22;13462;50.764;4.332;2024-01-15T08:00:14;1.00;99.90
25582;DHT22;13462;50.764;4.332;2024-01-15T08:02:40;1.00;99.90
25582;DHT22;13462;50.764;4.332;2024-01-15T08:05:06;1.00;99.90
25582;DHT22;13462;50.764;4.332;2024-01-15T08:07:31;1.10;99.90
25582;DHT22;13462;50.764;4.332;2024-01-15T08:09:57;1.00;99.90
25582;DHT22;13462;50.764;4.332;2024-01-15T08:12:23;1.00;99.90
25582;DHT22;13462;50.764;4.332;2024-01-15T08:14:49;1.10;99.90
25582;DHT22;13462;50.764;4.332;2024-01-15T08:17:14;1.20;99.90
25582;DHT22;13462;50.764;4.332;2024-01-15T08:19:42;1.20;99.90
25582;DHT22;13462;50.764;4.332;2024-01-15T08:22:07;1.10;99.90
25582;DHT22;13462;50.764;4.332;2024-01-15T08:24:33;1.20;99.90
25582;DHT22;13462;50.764;4.332;2024-01-15T08:26:58;1.30;99.90
25582;DHT22;13462;50.764;4.332;2024-01-15T08:29:24;1.30;99.90
25582;DHT22;13462;50.764;4.332;2024-01-15T08:31:50;1.40;99.90
25582;DHT22;13462;50.764;4.332;2024-01-15T08:34:15;1.50;99.90
25582;DHT22;13462;50.764;4.332;2024-01-15T08:36:41;1.70;99.90
25582;DHT22;13462;50.764;4.332;2024-01-15T08:39:07;1.80;99.90
25582;DHT22;13462;50.764;4.332;2024-01-15T08:41:34;2.00;99.90
25582;DHT22;13462;50.764;4.332;2024-01-15T08:44:00;2.00;99.90
25582;DHT22;13462;50.764;4.332;2024-01-15T08:46:26;2.10;99.90
25582;DHT22;13462;50.764;4.332;2024-01-15T08:48:51;2.20;99.90
25582;DHT22;13462;50.764;4.332;2024-01-15T08:51:17;2.30;99.90
25582;DHT22;13462;50.764;4.332;2024-01-15T08:53:44;2.50;99.90
25582;DHT22;13462;50.764;4.332;2024-01-15T08:56:09;2.30;99.90
25582;DHT22;13462;50.764;4.332;2024-01-15T08:58:35;2.30;99.90
25582;DHT22;13462;50.764;4.332;2024-01-15T09:01:01;2.30;99.90
25582;DHT22;13462;50.764;4.332;2024-01-15T09:03:26;2.30;99.90
25582;DHT22;13462;50.764;4.332;2024-01-15T09:05:52;2.30;99.90
25582;DHT22;13462;50.764;4.332;2024-01-15T09:08:17;2.30;99.90
25582;DHT22;13462;50.764;4.332;2024-01-15T09:10:43;2.40;99.90
25582;DHT22;13462;50.764;4.332;2024-01-15T09:13:09;2.60;99.90
25582;DHT22;13462;50.764;4.332;2024-01-15T09:15:34;3.50;99.90
25582;DHT22;13462;50.764;4.332;2024-01-15T09:18:00;4.90;99.90
25582;DHT22;13462;50.764;4.332;2024-01-15T09:20:27;6.20;99.90
25582;DHT22;13462;50.764;4.332;2024-01-15T09:22:53;7.40;99.90
25582;DHT22;13462;50.764;4.332;2024-01-15T09:25:19;7.90;99.90
25582;DHT22;13462;50.764;4.332;2024-01-15T09:27:45;9.10;99.90
25582;DHT22;13462;50.764;4.332;2024-01-15T09:30:10;10.30;99.90
25582;DHT22;13462;50.764;4.332;2024-01-15T09:32:36;10.60;99.90
25582;DHT22;13462;50.764;4.332;2024-01-15T09:35:02;11.40;99.90
25582;DHT22;13462;50.764;4.332;2024-01-15T09:37:27;11.50;99.90
25582;DHT22;13462;50.764;4.332;2024-01-15T09:39:53;11.50;99.90
25582;DHT22;13462;50.764;4.332;2024-01-15T09:42:22;12.50;99.90
25582;DHT22;13462;50.764;4.332;2024-01-15T09:44:49;13.70;98.50
25582;DHT22;13462;50.764;4.332;2024-01-15T09:47:15;13.40;95.70
25582;DHT22;13462;50.764;4.332;2024-01-15T09:49:41;13.70;96.20
25582;DHT22;13462;50.764;4.332;2024-01-15T09:52:07;13.20;97.00
25582;DHT22;13462;50.764;4.332;2024-01-15T09:54:33;13.80;94.20
25582;DHT22;13462;50.764;4.332;2024-01-15T09:57:00;14.00;93.50
25582;DHT22;13462;50.764;4.332;2024-01-15T09:59:27;13.20;94.80
25582;DHT22;13462;50.764;4.332;2024-01-15T10:01:53;14.20;94.90
25582;DHT22;13462;50.764;4.332;2024-01-15T10:04:21;14.20;93.10
25582;DHT22;13462;50.764;4.332;2024-01-15T10:06:46;13.90;93.00
25582;DHT22;13462;50.764;4.332;2024-01-15T10:09:13;12.50;92.90
25582;DHT22;13462;50.764;4.332;2024-01-15T10:11:43;12.20;95.10
25582;DHT22;13462;50.764;4.332;2024-01-15T10:14:12;12.10;96.30
25582;DHT22;13462;50.764;4.332;2024-01-15T10:16:39;12.80;95.80
25582;DHT22;13462;50.764;4.332;2024-01-15T10:19:04;13.60;92.20
25582;DHT22;13462;50.764;4.332;2024-01-15T10:21:32;14.00;91.90
25582;DHT22;13462;50.764;4.332;2024-01-15T10:24:00;14.30;91.70
25582;DHT22;13462;50.764;4.332;2024-01-15T10:26:26;14.90;91.00
25582;DHT22;13462;50.764;4.332;2024-01-15T10:28:52;14.50;88.30
25582;DHT22;13462;50.764;4.332;2024-01-15T10:31:20;14.60;90.90
25582;DHT22;13462;50.764;4.332;2024-01-15T10:33:50;14.70;89.00
25582;DHT22;13462;50.764;4.332;2024-01-15T10:36:16;14.70;90.20
25582;DHT22;13462;50.764;4.332;2024-01-15T10:38:46;13.50;90.70
25582;DHT22;13462;50.764;4.332;2024-01-15T10:41:12;12.40;92.50
25582;DHT22;13462;50.764;4.332;2024-01-15T10:43:38;11.00;94.50
25582;DHT22;13462;50.764;4.332;2024-01-15T10:46:07;10.50;96.70
25582;DHT22;13462;50.764;4.332;2024-01-15T10:48:33;12.00;96.60
25582;DHT22;13462;50.764;4.332;2024-01-15T10:51:01;12.30;93.20
25582;DHT22;13462;50.764;4.332;2024-01-15T10:53:28;12.10;94.10
25582;DHT22;13462;50.764;4.332;2024-01-15T10:55:56;11.30;95.90
25582;DHT22;13462;50.764;4.332;2024-01-15T10:58:23;11.00;96.10
25582;DHT22;13462;50.764;4.332;2024-01-15T11:00:49;11.00;97.60
25582;DHT22;13462;50.764;4.332;2024-01-15T11:03:15;10.70;96.20
25582;DHT22;13462;50.764;4.332;2024-01-15T11:05:43;10.90;97.80
25582;DHT22;13462;50.764;4.332;2024-01-15T11:08:09;10.40;97.40
25582;DHT22;13462;50.764;4.332;2024-01-15T11:10:50;9.80;98.80
25582;DHT22;13462;50.764;4.332;2024-01-15T11:16:09;9.60;99.90
25582;DHT22;13462;50.764;4.332;2024-01-15T11:26:49;10.60;99.10
25582;DHT22;13462;50.764;4.332;2024-01-15T11:34:21;8.40;99.90
25582;DHT22;13462;50.764;4.332;2024-01-15T11:37:07;9.20;99.90
25582;DHT22;13462;50.764;4.332;2024-01-15T11:42:00;9.30;99.90
25582;DHT22;13462;50.764;4.332;2024-01-15T11:44:27;8.60;99.90
25582;DHT22;13462;50.764;4.332;2024-01-15T11:47:02;8.50;99.90
25582;DHT22;13462;50.764;4.332;2024-01-15T11:52:16;8.00;99.90
25582;DHT22;13462;50.764;4.332;2024-01-15T11:54:47;7.40;99.90
25582;DHT22;13462;50.764;4.332;2024-01-15T11:57:25;7.00;99.90
25582;DHT22;13462;50.764;4.332;2024-01-15T11:59:54;6.80;99.90
25582;DHT22;13462;50.764;4.332;2024-01-15T12:02:20;6.40;99.90
25582;DHT22;13462;50.764;4.332;2024-01-15T12:04:45;6.20;99.90
25582;DHT22;13462;50.764;4.332;2024-01-15T12:07:11;5.70;99.90
25582;DHT22;13462;50.764;4.332;2024-01-15T12:09:44;5.80;99.90
25582;DHT22;13462;50.764;4.332;2024-01-15T12:12:13;6.10;99.90
25582;DHT22;13462;50.764;4.332;2024-01-15T12:14:40;6.30;99.90
25582;DHT22;13462;50.764;4.332;2024-01-15T12:17:06;6.20;99.90
25582;DHT22;13462;50.764;4.332;2024-01-15T12:19:32;6.10;99.90
25582;DHT22;13462;50.764;4.332;2024-01-15T12:21:57;6.40;99.90
25582;DHT22;13462;50.764;4.332;2024-01-15T12:24:23;6.90;99.90
25582;DHT22;13462;50.764;4.332;2024-01-15T12:26:49;7.40;99.90
25582;DHT22;13462;50.764;4.332;2024-01-15T12:29:18;8.20;99.90
25582;DHT22;13462;50.764;4.332;2024-01-15T12:31:46;8.70;99.90
25582;DHT22;13462;50.764;4.332;2024-01-15T12:34:11;9.30;99.90
25582;DHT22;13462;50.764;4.332;2024-01-15T12:36:37;9.20;99.90
25582;DHT22;13462;50.764;4.332;2024-01-15T12:39:02;9.90;99.90
25582;DHT22;13462;50.764;4.332;2024-01-15T12:41:28;10.20;99.50
25582;DHT22;13462;50.764;4.332;2024-01-15T12:43:54;9.30;99.90
25582;DHT22;13462;50.764;4.332;2024-01-15T12:46:19;8.40;99.90
25582;DHT22;13462;50.764;4.332;2024-01-15T12:48:45;8.90;99.90
25582;DHT22;13462;50.764;4.332;2024-01-15T12:51:11;8.50;99.90
25582;DHT22;13462;50.764;4.332;2024-01-15T12:53:36;7.70;99.90
25582;DHT22;13462;50.764;4.332;2024-01-15T12:56:02;7.50;99.90
25582;DHT22;13462;50.764;4.332;2024-01-15T12:58:28;7.50;99.90
25582;DHT22;13462;50.764;4.332;2024-01-15T13:00:54;7.10;99.90
25582;DHT22;13462;50.764;4.332;2024-01-15T13:03:19;6.70;99.90
25582;DHT22;13462;50.764;4.332;2024-01-15T13:05:45;6.30;99.90
25582;DHT22;13462;50.764;4.332;2024-01-15T13:08:11;5.70;99.90
25582;DHT22;13462;50.764;4.332;2024-01-15T13:10:36;5.20;99.90
25582;DHT22;13462;50.764;4.332;2024-01-15T13:13:02;5.10;99.90
25582;DHT22;13462;50.764;4.332;2024-01-15T13:15:28;4.80;99.90
25582;DHT22;13462;50.764;4.332;2024-01-15T13:17:53;4.60;99.90
25582;DHT22;13462;50.764;4.332;2024-01-15T13:20:19;4.60;99.90
25582;DHT22;13462;50.764;4.332;2024-01-15T13:22:45;4.60;99.90
25582;DHT22;13462;50.764;4.332;2024-01-15T13:25:11;4.70;99.90
25582;DHT22;13462;50.764;4.332;2024-01-15T13:27:37;4.50;99.90
25582;DHT22;13462;50.764;4.332;2024-01-15T13:30:03;4.60;99.90
25582;DHT22;13462;50.764;4.332;2024-01-15T13:32:29;4.70;99.90
25582;DHT22;13462;50.764;4.332;2024-01-15T13:35:00;4.60;99.90
25582;DHT22;13462;50.764;4.332;2024-01-15T13:37:25;4.70;99.90
25582;DHT22;13462;50.764;4.332;2024-01-15T13:39:51;5.00;99.90
25582;DHT22;13462;50.764;4.332;2024-01-15T13:42:18;5.20;99.90
25582;DHT22;13462;50.764;4.332;2024-01-15T13:44:43;5.20;99.90
25582;DHT22;13462;50.764;4.332;2024-01-15T13:47:09;5.10;99.90
25582;DHT22;13462;50.764;4.332;2024-01-15T13:49:35;5.50;99.90
25582;DHT22;13462;50.764;4.332;2024-01-15T13:52:02;5.70;99.90
25582;DHT22;13462;50.764;4.332;2024-01-15T13:54:29;6.00;99.90
25582;DHT22;13462;50.764;4.332;2024-01-15T13:56:55;6.10;99.90
25582;DHT22;13462;50.764;4.332;2024-01-15T13:59:21;6.10;99.90
25582;DHT22;13462;50.764;4.332;2024-01-15T14:01:47;6.10;99.90
25582;DHT22;13462;50.764;4.332;2024-01-15T14:04:12;5.50;99.90
25582;DHT22;13462;50.764;4.332;2024-01-15T14:06:38;5.20;99.90
25582;DHT22;13462;50.764;4.332;2024-01-15T14:09:07;5.10;99.90
25582;DHT22;13462;50.764;4.332;2024-01-15T14:11:36;4.80;99.90
25582;DHT22;13462;50.764;4.332;2024-01-15T14:14:03;4.80;99.90
25582;DHT22;13462;50.764;4.332;2024-01-15T14:16:28;4.70;99.90
25582;DHT22;13462;50.764;4.332;2024-01-15T14:18:54;4.40;99.90
25582;DHT22;13462;50.764;4.332;2024-01-15T14:21:20;4.10;99.90
25582;DHT22;13462;50.764;4.332;2024-01-15T14:23:46;4.00;99.90
25582;DHT22;13462;50.764;4.332;2024-01-15T14:26:11;4.00;99.90
25582;DHT22;13462;50.764;4.332;2024-01-15T14:28:37;4.00;99.90
25582;DHT22;13462;50.764;4.332;2024-01-15T14:31:04;4.00;99.90
25582;DHT22;13462;50.764;4.332;2024-01-15T14:33:31;4.00;99.90
25582;DHT22;13462;50.764;4.332;2024-01-15T14:35:59;4.10;99.90
25582;DHT22;13462;50.764;4.332;2024-01-15T14:38:25;3.90;99.90
25582;DHT22;13462;50.764;4.332;2024-01-15T14:40:51;4.00;99.90
25582;DHT22;13462;50.764;4.332;2024-01-15T14:43:17;4.00;99.90
25582;DHT22;13462;50.764;4.332;2024-01-15T14:45:43;4.20;99.90
25582;DHT22;13462;50.764;4.332;2024-01-15T14:48:09;4.30;99.90
25582;DHT22;13462;50.764;4.332;2024-01-15T14:50:34;4.40;99.90
25582;DHT22;13462;50.764;4.332;2024-01-15T14:56:28;4.50;99.90
25582;DHT22;13462;50.764;4.332;2024-01-15T14:58:57;4.20;99.90
25582;DHT22;13462;50.764;4.332;2024-01-15T15:01:28;4.00;99.90
25582;DHT22;13462;50.764;4.332;2024-01-15T15:03:54;3.80;99.90
25582;DHT22;13462;50.764;4.332;2024-01-15T15:06:20;3.70;99.90
25582;DHT22;13462;50.764;4.332;2024-01-15T15:08:46;3.30;99.90
25582;DHT22;13462;50.764;4.332;2024-01-15T15:11:12;3.00;99.90
25582;DHT22;13462;50.764;4.332;2024-01-15T15:28:52;2.90;99.90
25582;DHT22;13462;50.764;4.332;2024-01-15T15:31:18;2.70;99.90
25582;DHT22;13462;50.764;4.332;2024-01-15T15:33:43;2.80;99.90
25582;DHT22;13462;50.764;4.332;2024-01-15T15:36:10;2.70;99.90
25582;DHT22;13462;50.764;4.332;2024-01-15T15:38:35;2.60;99.90
25582;DHT22;13462;50.764;4.332;2024-01-15T15:41:01;2.60;99.90
25582;DHT22;13462;50.764;4.332;2024-01-15T15:43:27;2.60;99.90
25582;DHT22;13462;50.764;4.332;2024-01-15T15:45:53;2.50;99.90
25582;DHT22;13462;50.764;4.332;2024-01-15T15:48:19;2.50;99.90
25582;DHT22;13462;50.764;4.332;2024-01-15T15:50:44;2.50;99.90
25582;DHT22;13462;50.764;4.332;2024-01-15T15:53:10;2.40;99.90
25582;DHT22;13462;50.764;4.332;2024-01-15T15:55:36;2.40;99.90
25582;DHT22;13462;50.764;4.332;2024-01-15T15:58:03;2.40;99.90
25582;DHT22;13462;50.764;4.332;2024-01-15T16:00:29;2.50;99.90
25582;DHT22;13462;50.764;4.332;2024-01-15T16:02:54;2.50;99.90
25582;DHT22;13462;50.764;4.332;2024-01-15T16:05:20;2.30;99.90
25582;DHT22;13462;50.764;4.332;2024-01-15T16:07:46;2.20;99.90
25582;DHT22;13462;50.764;4.332;2024-01-15T16:10:11;2.10;99.90
25582;DHT22;13462;50.764;4.332;2024-01-15T16:12:37;2.00;99.90
25582;DHT22;13462;50.764;4.332;2024-01-15T16:15:22;2.00;99.90
25582;DHT22;13462;50.764;4.332;2024-01-15T16:17:49;1.90;99.90
25582;DHT22;13462;50.764;4.332;2024-01-15T16:20:19;1.90;99.90
25582;DHT22;13462;50.764;4.332;2024-01-15T16:22:45;1.90;99.90